Time;durP1;ratioP1;P1;durP2;ratioP2;P2;SDS_P1;SDS_P2;PMS_P1;PMS_P2;Temp;Humidity;BMP_temperature;BMP_pressure;BME280_temperature;BME280_humidity;BME280_pressure;Samples;Min_cycle;Max_cycle;Signal;HPM_P1;HPM_P2
2023/03/27 00:00:57;;;;;;;6.18;0.70;;;4.70;99.90;;;;;;5001881;28;20044;-74
2023/03/27 00:03:24;;;;;;;7.60;1.38;;;4.70;99.90;;;;;;4999036;28;20108;-74
2023/03/27 00:06:15;;;;;;;9.05;0.65;;;4.80;99.90;;;;;;4996986;28;20058;-73
2023/03/27 00:08:41;;;;;;;20.27;1.20;;;4.80;99.90;;;;;;5001562;28;20042;-73
2023/03/27 00:11:06;;;;;;;6.38;1.17;;;4.80;99.90;;;;;;5000469;28;20034;-74
2023/03/27 00:13:32;;;;;;;3.90;0.70;;;4.90;99.90;;;;;;5000875;28;20050;-74
2023/03/27 00:15:58;;;;;;;4.20;0.60;;;4.90;99.90;;;;;;4995317;28;20109;-73
2023/03/27 00:18:25;;;;;;;5.40;0.65;;;4.90;99.90;;;;;;4993641;28;20033;-74
2023/03/27 00:20:57;;;;;;;3.00;0.60;;;4.90;99.90;;;;;;4996818;28;20120;-74
2023/03/27 00:23:23;;;;;;;8.65;0.95;;;4.90;99.90;;;;;;4997503;28;20046;-75
2023/03/27 00:25:49;;;;;;;2.05;0.47;;;4.90;99.90;;;;;;5003528;28;20576;-74
2023/03/27 00:28:19;;;;;;;6.13;0.45;;;4.90;99.90;;;;;;4997351;28;20082;-74
2023/03/27 00:30:47;;;;;;;5.38;0.60;;;5.00;99.90;;;;;;4996075;28;20101;-74
2023/03/27 00:33:13;;;;;;;9.13;0.95;;;4.90;99.90;;;;;;4997330;28;20117;-74
2023/03/27 00:35:47;;;;;;;3.42;0.65;;;5.00;99.90;;;;;;4995831;28;20133;-72
2023/03/27 00:38:14;;;;;;;2.72;0.43;;;4.90;99.90;;;;;;5011302;28;20664;-74
2023/03/27 00:40:40;;;;;;;1.52;0.35;;;4.90;99.90;;;;;;4996551;28;20062;-72
2023/03/27 00:43:21;;;;;;;5.95;0.52;;;4.90;99.90;;;;;;4996056;28;20026;-73
2023/03/27 00:45:49;;;;;;;2.17;0.47;;;4.80;99.90;;;;;;4995610;28;20049;-74
2023/03/27 00:48:17;;;;;;;2.70;0.45;;;4.70;99.90;;;;;;5011251;28;20041;-74
2023/03/27 00:50:43;;;;;;;7.00;0.40;;;4.70;99.90;;;;;;4998625;28;20837;-76
2023/03/27 00:53:13;;;;;;;1.75;0.30;;;4.60;99.90;;;;;;4996009;28;20479;-73
2023/03/27 00:55:43;;;;;;;7.80;0.47;;;4.60;99.90;;;;;;4996986;28;20099;-74
2023/03/27 00:58:16;;;;;;;3.90;0.50;;;4.50;99.90;;;;;;5009562;28;20029;-73
2023/03/27 01:00:42;;;;;;;3.97;0.43;;;4.50;99.90;;;;;;4995847;28;20121;-73
2023/03/27 01:03:10;;;;;;;0.90;0.20;;;4.40;99.90;;;;;;4993617;28;20154;-73
2023/03/27 01:05:36;;;;;;;5.63;1.10;;;4.40;99.90;;;;;;4996356;28;20037;-72
2023/03/27 01:08:03;;;;;;;4.75;0.22;;;4.40;99.90;;;;;;4998473;28;20044;-76
2023/03/27 01:11:00;;;;;;;1.45;0.30;;;4.40;99.90;;;;;;4999346;28;20093;-73
2023/03/27 01:13:53;;;;;;;3.45;0.35;;;4.30;99.90;;;;;;4990769;28;20046;-74
2023/03/27 01:16:31;;;;;;;4.93;0.52;;;4.30;99.90;;;;;;5000259;28;20623;-73
2023/03/27 01:19:16;;;;;;;3.17;0.50;;;4.30;99.90;;;;;;5015532;28;20861;-73
2023/03/27 01:22:03;;;;;;;3.38;0.20;;;4.20;99.90;;;;;;4996689;28;20062;-74
2023/03/27 01:24:57;;;;;;;3.85;0.52;;;4.20;99.90;;;;;;5002071;28;20140;-74
2023/03/27 01:27:57;;;;;;;5.20;0.82;;;4.30;99.90;;;;;;5013298;28;20048;-74
2023/03/27 01:30:51;;;;;;;4.00;0.30;;;4.30;99.90;;;;;;5002536;28;20141;-75
2023/03/27 01:33:31;;;;;;;4.45;0.75;;;4.40;99.90;;;;;;4998735;28;20281;-75
2023/03/27 01:36:18;;;;;;;4.03;0.38;;;4.40;99.90;;;;;;5003430;28;20037;-74
2023/03/27 01:39:04;;;;;;;1.85;0.57;;;4.40;99.90;;;;;;5003071;28;20799;-74
2023/03/27 01:41:32;;;;;;;1.85;0.30;;;4.50;99.90;;;;;;4998399;28;20049;-73
2023/03/27 01:44:19;;;;;;;4.72;0.50;;;4.50;99.90;;;;;;5033402;28;20081;-76
2023/03/27 01:46:53;;;;;;;2.83;0.57;;;4.50;99.90;;;;;;5012037;28;20569;-73
2023/03/27 01:49:26;;;;;;;1.95;0.30;;;4.50;99.90;;;;;;5005841;28;20038;-73
2023/03/27 01:51:59;;;;;;;4.60;0.30;;;4.50;99.90;;;;;;4997720;28;20182;-73
2023/03/27 01:54:31;;;;;;;1.65;0.22;;;4.40;99.90;;;;;;4996309;28;20522;-75
2023/03/27 01:57:03;;;;;;;5.40;1.60;;;4.40;99.90;;;;;;5003207;28;20029;-74
2023/03/27 01:59:34;;;;;;;4.72;0.52;;;4.40;99.90;;;;;;5001075;28;20491;-74
2023/03/27 02:02:04;;;;;;;5.43;0.40;;;4.30;99.90;;;;;;5005900;28;20038;-74
2023/03/27 02:04:41;;;;;;;4.60;0.30;;;4.30;99.90;;;;;;5003862;28;20042;-73
2023/03/27 02:07:11;;;;;;;10.00;0.55;;;4.20;99.90;;;;;;5023333;28;20168;-73
2023/03/27 02:09:57;;;;;;;2.15;0.45;;;4.20;99.90;;;;;;5006048;28;20035;-72
2023/03/27 02:12:28;;;;;;;1.50;0.20;;;4.20;99.90;;;;;;5008890;28;20049;-73
2023/03/27 02:14:59;;;;;;;3.08;0.35;;;4.10;99.90;;;;;;5000988;28;20903;-74
2023/03/27 02:17:27;;;;;;;6.30;0.40;;;4.00;99.90;;;;;;4999882;28;20030;-73
2023/03/27 02:19:58;;;;;;;2.10;0.32;;;4.00;99.90;;;;;;5001652;28;20041;-73
2023/03/27 02:22:24;;;;;;;4.15;0.38;;;3.90;99.90;;;;;;5000650;28;20409;-75
2023/03/27 02:24:53;;;;;;;1.02;0.30;;;3.90;99.90;;;;;;5005100;28;20045;-73
2023/03/27 02:27:38;;;;;;;4.88;0.60;;;3.90;99.90;;;;;;5004134;28;20932;-75
2023/03/27 02:30:07;;;;;;;3.35;0.85;;;3.80;99.90;;;;;;5001575;28;20395;-73
2023/03/27 02:32:46;;;;;;;3.15;0.30;;;3.80;99.90;;;;;;5003238;28;20041;-75
2023/03/27 02:35:45;;;;;;;2.13;0.63;;;3.70;99.90;;;;;;5022270;28;20054;-75
2023/03/27 02:38:36;;;;;;;3.90;0.60;;;3.70;99.90;;;;;;5010814;28;20038;-73
2023/03/27 02:41:18;;;;;;;1.58;0.75;;;3.60;99.90;;;;;;5001160;28;20037;-75
2023/03/27 02:43:58;;;;;;;0.70;0.20;;;3.60;99.90;;;;;;5003073;28;20054;-74
2023/03/27 02:46:51;;;;;;;2.25;0.40;;;3.60;99.90;;;;;;5008562;28;20030;-74
2023/03/27 02:49:41;;;;;;;3.55;0.20;;;3.60;99.90;;;;;;5007530;28;20571;-73
2023/03/27 02:52:15;;;;;;;1.70;0.30;;;3.60;99.90;;;;;;5001502;28;20060;-73
2023/03/27 02:54:49;;;;;;;1.90;0.40;;;3.60;99.90;;;;;;5001629;28;20045;-73
2023/03/27 02:57:19;;;;;;;4.30;0.52;;;3.60;99.90;;;;;;5000793;28;20038;-73
2023/03/27 02:59:54;;;;;;;1.67;0.32;;;3.50;99.90;;;;;;5004649;28;20037;-73
2023/03/27 03:02:24;;;;;;;4.60;0.52;;;3.50;99.90;;;;;;5001511;28;20595;-73
2023/03/27 03:05:00;;;;;;;2.20;0.40;;;3.50;99.90;;;;;;5000072;28;20502;-73
2023/03/27 03:07:29;;;;;;;2.22;0.50;;;3.50;99.90;;;;;;5011319;28;20099;-73
2023/03/27 03:09:55;;;;;;;2.08;0.52;;;3.50;99.90;;;;;;5007324;28;20532;-73
2023/03/27 03:12:21;;;;;;;4.28;0.50;;;3.50;99.90;;;;;;5000569;28;20034;-73
2023/03/27 03:14:47;;;;;;;2.08;0.40;;;3.40;99.90;;;;;;5003643;28;20036;-74
2023/03/27 03:17:16;;;;;;;3.00;0.38;;;3.40;99.90;;;;;;5002159;28;20462;-76
2023/03/27 03:19:41;;;;;;;5.63;1.00;;;3.40;99.90;;;;;;5001536;28;20114;-73
2023/03/27 03:22:07;;;;;;;3.55;1.10;;;3.40;99.90;;;;;;4999917;28;20022;-76
2023/03/27 03:24:34;;;;;;;0.70;0.20;;;3.30;99.90;;;;;;5001333;28;20042;-74
2023/03/27 03:27:03;;;;;;;1.20;0.40;;;3.30;99.90;;;;;;5001392;28;20390;-73
2023/03/27 03:29:35;;;;;;;3.45;0.47;;;3.30;99.90;;;;;;5002064;28;20125;-72
2023/03/27 03:32:02;;;;;;;4.13;0.82;;;3.30;99.90;;;;;;5001342;28;20038;-76
2023/03/27 03:34:29;;;;;;;4.68;0.80;;;3.30;99.90;;;;;;5002320;28;20107;-72
2023/03/27 03:36:55;;;;;;;3.55;0.50;;;3.30;99.90;;;;;;5002993;28;20053;-75
2023/03/27 03:39:21;;;;;;;13.15;1.67;;;3.20;99.90;;;;;;5000094;28;20113;-73
2023/03/27 03:41:47;;;;;;;11.05;1.35;;;3.30;99.90;;;;;;4998503;28;20149;-73
2023/03/27 03:44:13;;;;;;;10.10;0.65;;;3.20;99.90;;;;;;4997757;28;20125;-73
2023/03/27 03:46:39;;;;;;;6.05;0.60;;;3.20;99.90;;;;;;5000751;28;20041;-73
2023/03/27 03:49:05;;;;;;;5.97;0.55;;;3.20;99.90;;;;;;4994297;28;20053;-72
2023/03/27 03:51:35;;;;;;;5.85;0.82;;;3.20;99.90;;;;;;4999315;28;20044;-73
2023/03/27 03:54:00;;;;;;;3.05;0.60;;;3.20;99.90;;;;;;4999423;28;20096;-75
2023/03/27 03:56:28;;;;;;;3.25;0.40;;;3.20;99.90;;;;;;4997877;28;20042;-76
2023/03/27 03:58:54;;;;;;;3.70;0.55;;;3.20;99.90;;;;;;4999983;28;20034;-74
2023/03/27 04:01:21;;;;;;;3.30;0.60;;;3.30;99.90;;;;;;5000053;28;20773;-73
2023/03/27 04:03:48;;;;;;;5.35;1.20;;;3.30;99.90;;;;;;4999692;28;20038;-74
2023/03/27 04:06:16;;;;;;;3.33;0.45;;;3.30;99.90;;;;;;4998583;28;20053;-75
2023/03/27 04:08:42;;;;;;;2.90;0.63;;;3.30;99.90;;;;;;5001962;28;22377;-73
2023/03/27 04:11:08;;;;;;;6.38;0.40;;;3.20;99.90;;;;;;5006020;28;20038;-73
2023/03/27 04:13:34;;;;;;;5.05;0.90;;;3.30;99.90;;;;;;4996833;28;20040;-74
2023/03/27 04:16:00;;;;;;;2.63;0.30;;;3.20;99.90;;;;;;4999519;28;20057;-73
2023/03/27 04:18:31;;;;;;;2.30;0.45;;;3.20;99.90;;;;;;4994661;28;20038;-73
2023/03/27 04:21:00;;;;;;;5.13;0.40;;;3.20;99.90;;;;;;4999329;28;20062;-75
2023/03/27 04:23:29;;;;;;;2.55;0.20;;;3.20;99.90;;;;;;4997980;28;20034;-72
2023/03/27 04:25:58;;;;;;;2.80;0.70;;;3.20;99.90;;;;;;4998643;28;20121;-73
2023/03/27 04:28:29;;;;;;;2.08;0.22;;;3.20;99.90;;;;;;4997501;28;20126;-74
2023/03/27 04:30:56;;;;;;;2.78;0.47;;;3.10;99.90;;;;;;4998281;28;20034;-73
2023/03/27 04:33:22;;;;;;;3.70;0.50;;;3.10;99.90;;;;;;5008331;28;20548;-77
2023/03/27 04:35:51;;;;;;;0.73;0.20;;;3.20;99.90;;;;;;4999309;28;20038;-74
2023/03/27 04:38:18;;;;;;;5.03;0.57;;;3.20;99.90;;;;;;4996915;28;20062;-76
2023/03/27 04:40:45;;;;;;;1.85;0.30;;;3.20;99.90;;;;;;4996253;28;20111;-75
2023/03/27 04:43:13;;;;;;;3.97;0.52;;;3.30;99.90;;;;;;4995247;28;20046;-73
2023/03/27 04:45:39;;;;;;;1.23;0.65;;;3.40;99.90;;;;;;5000893;28;20125;-74
2023/03/27 04:48:05;;;;;;;2.88;0.47;;;3.50;99.90;;;;;;5024874;28;20560;-73
2023/03/27 04:50:31;;;;;;;0.47;0.10;;;3.50;99.90;;;;;;4995245;28;20038;-75
2023/03/27 04:52:59;;;;;;;6.00;1.23;;;3.50;99.90;;;;;;4999706;28;20495;-75
2023/03/27 04:55:25;;;;;;;6.70;0.88;;;3.60;99.90;;;;;;4999550;28;20444;-72
2023/03/27 04:57:52;;;;;;;5.93;0.60;;;3.60;99.90;;;;;;5004490;28;20030;-75
2023/03/27 05:00:18;;;;;;;3.65;0.93;;;3.60;99.90;;;;;;4998413;28;20041;-74
2023/03/27 05:02:46;;;;;;;4.05;0.50;;;3.50;99.90;;;;;;5003822;28;20132;-72
2023/03/27 05:05:12;;;;;;;2.58;0.50;;;3.50;99.90;;;;;;4997120;28;20399;-72
2023/03/27 05:07:38;;;;;;;2.47;0.80;;;3.50;99.90;;;;;;5008931;28;20045;-73
2023/03/27 05:10:04;;;;;;;5.40;0.60;;;3.50;99.90;;;;;;5007773;28;20033;-73
2023/03/27 05:12:30;;;;;;;2.35;0.82;;;3.50;99.90;;;;;;5000025;28;20045;-75
2023/03/27 05:14:56;;;;;;;2.42;0.60;;;3.50;99.90;;;;;;5004115;28;20486;-71
2023/03/27 05:17:24;;;;;;;2.38;0.50;;;3.50;99.90;;;;;;4997555;28;20038;-73
2023/03/27 05:19:50;;;;;;;3.45;0.50;;;3.50;99.90;;;;;;5003753;28;20048;-73
2023/03/27 05:22:16;;;;;;;2.40;0.40;;;3.40;99.90;;;;;;5004763;28;20038;-73
2023/03/27 05:24:42;;;;;;;4.35;0.57;;;3.40;99.90;;;;;;5005354;28;20766;-73
2023/03/27 05:27:09;;;;;;;2.42;0.40;;;3.30;99.90;;;;;;5000445;28;20033;-72
2023/03/27 05:29:34;;;;;;;2.05;0.70;;;3.30;99.90;;;;;;5003804;28;20030;-72
2023/03/27 05:32:00;;;;;;;6.63;1.08;;;3.20;99.90;;;;;;5004902;28;20112;-74
2023/03/27 05:34:27;;;;;;;2.55;0.50;;;3.20;99.90;;;;;;5016635;28;20041;-74
2023/03/27 05:36:53;;;;;;;3.35;0.77;;;3.10;99.90;;;;;;5008918;28;20061;-74
2023/03/27 05:39:19;;;;;;;4.60;1.42;;;3.10;99.90;;;;;;5018835;28;20403;-73
2023/03/27 05:41:45;;;;;;;6.53;0.80;;;3.10;99.90;;;;;;4994498;28;20030;-71
2023/03/27 05:44:11;;;;;;;2.25;0.77;;;3.10;99.90;;;;;;5002113;28;20045;-71
2023/03/27 05:46:36;;;;;;;2.10;0.50;;;3.00;99.90;;;;;;5002825;28;20076;-74
2023/03/27 05:49:03;;;;;;;4.75;0.45;;;3.00;99.90;;;;;;5005782;28;20045;-75
2023/03/27 05:51:28;;;;;;;2.50;0.50;;;3.00;99.90;;;;;;4999737;28;20050;-74
2023/03/27 05:53:54;;;;;;;2.83;0.50;;;3.00;99.90;;;;;;5004889;28;20559;-74
2023/03/27 05:56:19;;;;;;;2.83;0.68;;;3.00;99.90;;;;;;5016434;28;20034;-73
2023/03/27 05:58:45;;;;;;;2.17;0.60;;;3.10;99.90;;;;;;5005729;28;20037;-72
2023/03/27 06:01:11;;;;;;;1.92;0.88;;;3.10;99.90;;;;;;5001085;28;20502;-74
2023/03/27 06:03:37;;;;;;;2.38;0.45;;;3.10;99.90;;;;;;5002741;28;20113;-75
2023/03/27 06:06:10;;;;;;;4.20;0.90;;;3.20;99.90;;;;;;5001482;28;20116;-74
2023/03/27 06:08:37;;;;;;;5.13;0.73;;;3.40;99.90;;;;;;5003080;28;20040;-72
2023/03/27 06:11:14;;;;;;;5.60;1.15;;;3.60;99.90;;;;;;5000406;28;20193;-73
2023/03/27 06:13:39;;;;;;;4.13;0.50;;;3.80;99.90;;;;;;5002508;28;20402;-73
2023/03/27 06:16:06;;;;;;;5.97;0.47;;;4.00;99.90;;;;;;5002904;28;20046;-74
2023/03/27 06:18:32;;;;;;;2.75;0.60;;;4.00;99.90;;;;;;5003092;28;21090;-73
2023/03/27 06:20:58;;;;;;;4.22;0.55;;;4.00;99.90;;;;;;5000047;28;20080;-73
2023/03/27 06:23:23;;;;;;;3.28;0.35;;;4.00;99.90;;;;;;4998537;28;20849;-75
2023/03/27 06:25:51;;;;;;;2.75;0.95;;;4.00;99.90;;;;;;5005891;28;20042;-72
2023/03/27 06:28:18;;;;;;;3.05;0.50;;;4.00;99.90;;;;;;5004817;28;20406;-72
2023/03/27 06:30:45;;;;;;;2.63;0.60;;;4.10;99.90;;;;;;5003178;28;20041;-72
2023/03/27 06:33:11;;;;;;;1.42;0.50;;;4.20;99.90;;;;;;5001308;28;20121;-74
2023/03/27 06:35:38;;;;;;;7.88;0.55;;;4.20;99.90;;;;;;5001272;28;20037;-72
2023/03/27 06:38:05;;;;;;;2.60;0.55;;;4.20;99.90;;;;;;5004901;28;20532;-73
2023/03/27 06:40:34;;;;;;;6.25;1.02;;;4.20;99.90;;;;;;5001745;28;20038;-74
2023/03/27 06:43:05;;;;;;;5.82;0.60;;;4.30;99.90;;;;;;5004827;28;20061;-74
2023/03/27 06:45:33;;;;;;;6.57;1.42;;;4.40;99.90;;;;;;5000563;28;20054;-73
2023/03/27 06:48:02;;;;;;;6.95;0.77;;;4.40;99.90;;;;;;5001986;28;20048;-74
2023/03/27 06:50:29;;;;;;;2.25;0.50;;;4.40;99.90;;;;;;5000931;28;20041;-75
2023/03/27 06:52:55;;;;;;;3.13;0.88;;;4.40;99.90;;;;;;4995969;28;20789;-74
2023/03/27 06:55:22;;;;;;;3.30;0.60;;;4.30;99.90;;;;;;4999425;28;20038;-73
2023/03/27 06:57:50;;;;;;;2.17;0.50;;;4.30;99.90;;;;;;4999617;28;21605;-74
2023/03/27 07:00:18;;;;;;;6.15;1.13;;;4.40;99.90;;;;;;5010048;28;20123;-73
2023/03/27 07:02:48;;;;;;;2.75;0.43;;;4.50;99.90;;;;;;5000426;28;20041;-75
2023/03/27 07:05:15;;;;;;;5.77;1.50;;;4.60;99.90;;;;;;4999083;28;20034;-74
2023/03/27 07:07:41;;;;;;;4.97;1.20;;;4.80;99.90;;;;;;5000286;28;20045;-74
2023/03/27 07:10:08;;;;;;;7.10;1.63;;;4.90;99.90;;;;;;5013460;28;20022;-73
2023/03/27 07:12:34;;;;;;;7.50;1.27;;;5.10;99.90;;;;;;5000779;28;20038;-74
2023/03/27 07:15:00;;;;;;;2.22;0.43;;;5.20;99.90;;;;;;5001338;28;20069;-75
2023/03/27 07:17:26;;;;;;;4.13;0.82;;;5.30;99.90;;;;;;5000622;28;20114;-74
2023/03/27 07:19:52;;;;;;;2.35;0.20;;;5.40;99.90;;;;;;5000279;28;20038;-74
2023/03/27 07:22:18;;;;;;;6.13;0.22;;;5.60;99.90;;;;;;5001203;28;20037;-73
2023/03/27 07:24:44;;;;;;;5.25;0.10;;;5.70;99.90;;;;;;5001104;28;20100;-74
2023/03/27 07:27:10;;;;;;;1.85;0.10;;;5.70;99.90;;;;;;5000699;28;20045;-76
2023/03/27 07:29:36;;;;;;;1.63;0.30;;;5.80;99.90;;;;;;5001910;28;20045;-74
2023/03/27 07:32:02;;;;;;;12.05;1.00;;;5.90;99.90;;;;;;5000630;28;20637;-74
2023/03/27 07:34:31;;;;;;;3.83;0.40;;;6.00;99.90;;;;;;4999401;28;20083;-74
2023/03/27 07:36:57;;;;;;;3.28;0.30;;;6.10;99.90;;;;;;4998739;28;20398;-73
2023/03/27 07:39:23;;;;;;;0.68;0.10;;;6.20;99.90;;;;;;5002148;28;20042;-75
2023/03/27 07:41:48;;;;;;;3.22;0.30;;;6.40;99.90;;;;;;4999739;28;20048;-74
2023/03/27 07:44:14;;;;;;;3.72;0.50;;;6.50;99.90;;;;;;5001181;28;20128;-73
2023/03/27 07:46:40;;;;;;;11.25;0.35;;;6.50;99.90;;;;;;5000306;28;20045;-74
2023/03/27 07:49:05;;;;;;;3.28;0.32;;;6.50;99.90;;;;;;4999089;28;20109;-74
2023/03/27 07:51:31;;;;;;;3.22;0.40;;;6.60;99.90;;;;;;4998961;28;20038;-76
2023/03/27 07:54:02;;;;;;;3.65;0.63;;;6.70;99.90;;;;;;5015087;28;20038;-76
2023/03/27 07:56:29;;;;;;;2.00;0.50;;;6.80;99.90;;;;;;4998971;28;20045;-72
2023/03/27 07:58:54;;;;;;;8.98;0.45;;;7.00;99.90;;;;;;4999633;28;20631;-72
2023/03/27 08:01:20;;;;;;;2.40;0.10;;;6.60;99.90;;;;;;5015793;28;20037;-73
2023/03/27 08:03:47;;;;;;;0.40;0.10;;;6.20;99.90;;;;;;4998244;28;20038;-73
2023/03/27 08:06:12;;;;;;;0.22;0.10;;;5.70;99.90;;;;;;5000135;28;20125;-76
2023/03/27 08:08:38;;;;;;;3.40;0.20;;;5.40;99.90;;;;;;5001160;28;20148;-74
2023/03/27 08:11:04;;;;;;;2.05;0.50;;;5.10;99.90;;;;;;5001318;28;20046;-73
2023/03/27 08:13:30;;;;;;;0.73;0.20;;;5.10;99.90;;;;;;4998800;28;20449;-74
2023/03/27 08:16:08;;;;;;;3.50;0.10;;;4.90;99.90;;;;;;5002962;28;20033;-73
2023/03/27 08:18:35;;;;;;;2.83;0.52;;;5.00;99.90;;;;;;4999400;28;20142;-73
2023/03/27 08:21:02;;;;;;;8.35;0.43;;;5.10;99.90;;;;;;4999632;28;20048;-74
2023/03/27 08:23:29;;;;;;;1.70;0.20;;;5.20;99.90;;;;;;4997301;28;20077;-73
2023/03/27 08:25:59;;;;;;;0.85;0.10;;;5.40;99.90;;;;;;5001101;28;20042;-74
2023/03/27 08:28:26;;;;;;;3.13;0.50;;;5.70;99.90;;;;;;4998553;28;20061;-76
2023/03/27 08:30:52;;;;;;;5.18;0.30;;;5.80;99.90;;;;;;4998411;28;20587;-73
2023/03/27 08:33:18;;;;;;;3.85;0.73;;;6.00;99.90;;;;;;4998867;28;20045;-74
2023/03/27 08:35:47;;;;;;;3.97;0.30;;;6.20;99.90;;;;;;4998129;28;20084;-74
2023/03/27 08:38:13;;;;;;;3.47;0.20;;;6.30;99.90;;;;;;5000116;28;20038;-74
2023/03/27 08:40:46;;;;;;;9.15;0.47;;;6.40;99.90;;;;;;5015315;28;20049;-74
2023/03/27 08:43:16;;;;;;;10.23;0.75;;;6.40;99.90;;;;;;5000003;28;20096;-74
2023/03/27 08:45:51;;;;;;;1.98;0.20;;;6.50;99.90;;;;;;4996818;28;20120;-74
2023/03/27 08:48:23;;;;;;;3.50;0.98;;;6.70;99.90;;;;;;5001023;28;20767;-73
2023/03/27 08:50:55;;;;;;;2.97;0.30;;;6.70;99.90;;;;;;4999768;28;20119;-73
2023/03/27 08:53:38;;;;;;;3.33;0.20;;;6.80;99.90;;;;;;4999347;28;20035;-74
2023/03/27 08:56:04;;;;;;;5.28;0.30;;;6.90;99.90;;;;;;4998627;28;20133;-73
2023/03/27 08:58:31;;;;;;;2.05;0.22;;;6.90;99.90;;;;;;5001012;28;20042;-73
2023/03/27 09:01:26;;;;;;;6.47;0.40;;;6.90;99.90;;;;;;5000540;28;20066;-76
2023/03/27 09:03:51;;;;;;;3.50;0.35;;;7.00;99.90;;;;;;4997605;28;20490;-72
2023/03/27 09:06:28;;;;;;;2.28;0.50;;;7.10;99.90;;;;;;4998153;28;20080;-72
2023/03/27 09:09:39;;;;;;;2.55;0.20;;;7.20;99.90;;;;;;4998062;28;20084;-73
2023/03/27 09:12:25;;;;;;;7.93;0.95;;;7.30;99.90;;;;;;4998281;28;20069;-72
2023/03/27 09:15:01;;;;;;;2.78;0.55;;;7.40;99.90;;;;;;4995754;28;20098;-74
2023/03/27 09:17:37;;;;;;;1.40;0.20;;;7.50;99.90;;;;;;4998051;28;20567;-74
2023/03/27 09:20:18;;;;;;;10.27;0.80;;;7.60;99.90;;;;;;4998231;28;20095;-72
2023/03/27 09:22:52;;;;;;;3.33;0.50;;;7.70;99.90;;;;;;4995413;28;20030;-73
2023/03/27 09:25:23;;;;;;;1.48;0.10;;;8.00;99.90;;;;;;4998284;28;20069;-76
2023/03/27 09:27:51;;;;;;;1.38;0.30;;;7.80;99.90;;;;;;4997521;28;20052;-72
2023/03/27 09:30:27;;;;;;;2.55;0.50;;;7.10;99.90;;;;;;4998486;28;20439;-72
2023/03/27 09:32:56;;;;;;;2.13;0.40;;;6.40;99.90;;;;;;4998682;28;20736;-71
2023/03/27 09:35:28;;;;;;;5.20;0.50;;;5.60;99.90;;;;;;5000032;28;20038;-72
2023/03/27 09:38:02;;;;;;;2.05;0.35;;;5.20;99.90;;;;;;4996238;28;20041;-72
2023/03/27 09:40:47;;;;;;;0.90;0.15;;;4.90;99.90;;;;;;5001727;28;20030;-73
2023/03/27 09:43:20;;;;;;;3.78;0.65;;;4.60;99.90;;;;;;5001528;28;20062;-72
2023/03/27 09:45:48;;;;;;;3.75;0.35;;;4.50;99.90;;;;;;5001208;28;20061;-73
2023/03/27 09:48:38;;;;;;;5.53;0.65;;;4.50;99.90;;;;;;5004713;28;20042;-73
2023/03/27 09:51:04;;;;;;;0.70;0.20;;;4.40;99.90;;;;;;5005959;28;20125;-74
2023/03/27 09:53:31;;;;;;;4.43;0.30;;;4.50;99.90;;;;;;5001663;28;20041;-71
2023/03/27 09:56:01;;;;;;;1.67;0.22;;;4.70;99.90;;;;;;5002092;28;20397;-74
2023/03/27 09:58:26;;;;;;;3.10;0.55;;;4.90;99.90;;;;;;5001347;28;20080;-72
2023/03/27 10:01:29;;;;;;;5.07;0.32;;;5.20;99.90;;;;;;5002299;28;20585;-73
2023/03/27 10:03:58;;;;;;;1.23;0.25;;;5.50;99.90;;;;;;5002156;28;20034;-72
2023/03/27 10:07:05;;;;;;;4.00;0.70;;;5.70;99.90;;;;;;5002666;28;20651;-72
2023/03/27 10:09:33;;;;;;;4.07;0.73;;;5.90;99.90;;;;;;4999252;28;20088;-73
2023/03/27 10:12:06;;;;;;;4.43;0.68;;;6.10;99.90;;;;;;5002319;28;20044;-72
2023/03/27 10:14:41;;;;;;;3.83;0.38;;;6.30;99.90;;;;;;5001722;28;20038;-73
2023/03/27 10:17:22;;;;;;;6.68;0.75;;;6.60;99.90;;;;;;5002139;28;20490;-75
2023/03/27 10:19:51;;;;;;;5.03;0.38;;;6.80;99.90;;;;;;4999438;28;20053;-74
2023/03/27 10:22:30;;;;;;;3.83;0.50;;;7.00;99.90;;;;;;4998214;28;20076;-73
2023/03/27 10:25:13;;;;;;;5.93;0.40;;;7.30;99.90;;;;;;5000992;28;20041;-74
2023/03/27 10:27:42;;;;;;;4.25;0.80;;;7.40;99.90;;;;;;5003115;28;20125;-73
2023/03/27 10:30:39;;;;;;;2.78;0.43;;;7.30;99.90;;;;;;5000601;28;20049;-73
2023/03/27 10:33:04;;;;;;;2.53;0.20;;;7.10;99.90;;;;;;5002373;28;20033;-74
2023/03/27 10:35:42;;;;;;;6.63;0.77;;;7.10;99.90;;;;;;5002485;28;20153;-72
2023/03/27 10:38:16;;;;;;;4.20;0.45;;;7.20;99.90;;;;;;5002733;28;20030;-74
2023/03/27 10:40:47;;;;;;;1.30;0.30;;;7.40;99.90;;;;;;5000536;28;20041;-74
2023/03/27 10:43:46;;;;;;;4.45;1.08;;;7.60;99.90;;;;;;5000614;28;20600;-72
2023/03/27 10:46:34;;;;;;;4.45;0.40;;;7.70;99.90;;;;;;4997313;28;20553;-73
2023/03/27 10:49:27;;;;;;;4.03;0.38;;;7.50;99.90;;;;;;5015422;28;20504;-72
2023/03/27 10:52:11;;;;;;;4.40;0.50;;;7.60;99.90;;;;;;4999133;28;20050;-74
2023/03/27 10:54:52;;;;;;;5.57;0.30;;;7.90;99.90;;;;;;4998938;28;20092;-74
2023/03/27 10:57:36;;;;;;;2.35;0.30;;;7.90;99.90;;;;;;5000523;28;20030;-74
2023/03/27 11:00:21;;;;;;;4.93;1.05;;;7.90;99.90;;;;;;5000808;28;20510;-71
2023/03/27 11:02:56;;;;;;;8.38;0.73;;;8.00;99.90;;;;;;4999467;28;20049;-72
2023/03/27 11:05:36;;;;;;;2.00;0.20;;;8.10;99.90;;;;;;4999889;28;20698;-72
2023/03/27 11:08:13;;;;;;;2.65;0.40;;;8.10;99.90;;;;;;5014631;28;20495;-72
2023/03/27 11:10:41;;;;;;;11.27;1.05;;;8.00;99.90;;;;;;4999811;28;20398;-73
2023/03/27 11:13:19;;;;;;;20.30;1.30;;;8.10;99.90;;;;;;5000652;28;20026;-75
2023/03/27 11:15:57;;;;;;;3.25;0.40;;;8.10;99.90;;;;;;4999733;28;20219;-74
2023/03/27 11:18:37;;;;;;;3.33;0.40;;;8.10;99.90;;;;;;5001584;28;20120;-72
2023/03/27 11:21:36;;;;;;;3.80;1.38;;;8.20;99.90;;;;;;5001431;28;20586;-72
2023/03/27 11:24:08;;;;;;;3.67;0.32;;;8.40;99.90;;;;;;4993422;28;20717;-74
2023/03/27 11:27:00;;;;;;;4.63;0.70;;;8.40;99.90;;;;;;5000511;28;20065;-75
2023/03/27 11:29:31;;;;;;;2.15;0.20;;;8.50;99.90;;;;;;4997996;28;20116;-72
2023/03/27 11:32:10;;;;;;;4.63;0.50;;;8.40;99.90;;;;;;5010346;28;20210;-72
2023/03/27 11:34:51;;;;;;;3.40;0.40;;;8.50;99.90;;;;;;4999008;28;20042;-73
2023/03/27 11:37:22;;;;;;;1.85;0.50;;;8.60;99.90;;;;;;5000963;28;20030;-72
2023/03/27 11:40:00;;;;;;;5.90;0.75;;;8.40;99.90;;;;;;5000884;28;20617;-73
2023/03/27 11:42:31;;;;;;;4.60;0.40;;;8.40;99.90;;;;;;5002218;28;20029;-75
2023/03/27 11:44:57;;;;;;;3.95;0.32;;;8.40;99.90;;;;;;5000955;28;20581;-73
2023/03/27 11:47:50;;;;;;;3.03;0.50;;;8.30;99.90;;;;;;5000708;28;20805;-74
2023/03/27 11:50:22;;;;;;;4.80;1.88;;;8.10;99.90;;;;;;5001366;28;20029;-73
2023/03/27 11:53:03;;;;;;;3.10;0.45;;;7.90;99.90;;;;;;4999692;28;20045;-73
2023/03/27 11:55:56;;;;;;;2.20;0.40;;;7.70;99.90;;;;;;5000253;28;20081;-73
2023/03/27 11:58:33;;;;;;;4.28;0.38;;;7.50;99.90;;;;;;4999120;28;20508;-72
2023/03/27 12:01:12;;;;;;;2.28;0.38;;;7.60;99.90;;;;;;4997929;28;20038;-74
2023/03/27 12:04:05;;;;;;;2.38;0.40;;;7.80;99.90;;;;;;4998432;28;20050;-73
2023/03/27 12:07:07;;;;;;;2.42;0.45;;;8.10;99.90;;;;;;4997907;28;20838;-72
2023/03/27 12:10:01;;;;;;;8.35;1.95;;;8.40;99.90;;;;;;4996233;28;20434;-74
2023/03/27 12:13:04;;;;;;;5.88;0.65;;;8.60;99.90;;;;;;4998149;28;20150;-74
2023/03/27 12:16:00;;;;;;;9.00;0.95;;;8.80;99.90;;;;;;4997714;28;20570;-73
2023/03/27 12:18:28;;;;;;;10.75;1.20;;;8.80;99.90;;;;;;5012945;28;20065;-74
2023/03/27 12:21:24;;;;;;;4.55;0.90;;;8.50;99.90;;;;;;5015803;28;20034;-72
2023/03/27 12:24:37;;;;;;;7.53;0.70;;;8.40;99.90;;;;;;4997385;28;20045;-73
2023/03/27 12:27:18;;;;;;;8.48;0.82;;;8.70;99.90;;;;;;4960541;28;20136;-73
2023/03/27 12:30:00;;;;;;;10.00;0.70;;;8.70;99.90;;;;;;4959625;28;20030;-72
2023/03/27 12:32:47;;;;;;;3.30;0.50;;;8.30;99.90;;;;;;4989381;28;20453;-73
2023/03/27 12:35:16;;;;;;;5.57;0.63;;;8.00;99.90;;;;;;4998060;28;20125;-73
2023/03/27 12:37:47;;;;;;;11.07;0.68;;;7.60;99.90;;;;;;4997169;28;20412;-73
2023/03/27 12:40:30;;;;;;;7.32;0.75;;;7.40;99.90;;;;;;4998281;28;20034;-73
2023/03/27 12:43:20;;;;;;;2.63;0.80;;;7.10;99.90;;;;;;4997292;28;20064;-73
2023/03/27 12:46:13;;;;;;;3.65;1.08;;;7.00;99.90;;;;;;4999016;28;20034;-72
2023/03/27 12:49:01;;;;;;;7.45;0.45;;;7.20;99.90;;;;;;4995563;28;20038;-75
2023/03/27 12:51:50;;;;;;;7.20;1.23;;;7.40;99.90;;;;;;4998319;28;20700;-75
2023/03/27 12:54:24;;;;;;;6.57;1.50;;;7.60;99.90;;;;;;4997600;28;20066;-73
2023/03/27 12:57:13;;;;;;;3.28;0.45;;;7.70;99.90;;;;;;5013497;28;20514;-73
2023/03/27 12:59:46;;;;;;;3.60;0.70;;;7.70;99.90;;;;;;4996014;28;20039;-74
2023/03/27 13:02:33;;;;;;;6.38;0.40;;;7.60;99.90;;;;;;4999555;28;20125;-72
2023/03/27 13:05:13;;;;;;;3.53;0.57;;;7.70;99.90;;;;;;5014058;28;20038;-73
2023/03/27 13:08:09;;;;;;;3.45;0.57;;;7.70;99.90;;;;;;4999052;28;20042;-74
2023/03/27 13:10:44;;;;;;;3.95;0.85;;;7.80;99.90;;;;;;4999635;28;20070;-75
2023/03/27 13:13:17;;;;;;;2.83;0.30;;;7.80;99.90;;;;;;5000702;28;20179;-74
2023/03/27 13:15:51;;;;;;;1.48;0.10;;;7.50;99.90;;;;;;5003916;28;20034;-72
2023/03/27 13:18:47;;;;;;;3.17;0.52;;;7.30;99.90;;;;;;5001508;28;20079;-76
2023/03/27 13:21:37;;;;;;;1.90;0.35;;;7.10;99.90;;;;;;5003243;28;20045;-74
2023/03/27 13:24:39;;;;;;;0.98;0.43;;;7.00;99.90;;;;;;5019199;28;20034;-72
2023/03/27 13:27:26;;;;;;;5.00;0.40;;;7.10;99.90;;;;;;5017961;28;20566;-73
2023/03/27 13:29:52;;;;;;;0.70;0.05;;;7.30;99.90;;;;;;5017810;28;20049;-72